RAF Lakenheath

Airport
ICAO code: 
EGUL
Summary
ICAO Region: 
EUR
Territory: 
Location: 
Lakenheath, Suffolk, England,
Elevation: 
32 ft
Coordinates: 
Aerial View: 
52° 24' 33.486" N, 0° 33' 39.6" E
Metar
Observation
EGUL 191756Z AUTO 29008KT 9999 CLR 19/07 A3009 RMK AO2 SLP193 T01930074 10206 20184 52009 $
Station
Lakenheath Royal Air Force Base
Date/Time
2022-05-19 17:56:00
Wind direction
290°
Wind speed
08 kts
Lowest cloud amount
n/a
Temperature
19.3°C
Dew point
7.4°C
Humidity
46%
Weather condition
n/a

Description

Royal Air Force Station Lakenheath, commonly abbreviated to RAF Lakenheath, is a military airbase hosting USAF forces near Lakenheath in Suffolk, England.

Climatology

Temperate Marine climate/Oceanic climate (Köppen climate classification Cfb) - Moderately cool summer and comparatively warm winter.

Runways

Designator Length Width Surface Rops
6/24 2743 46 PEM No/No
Airport map: 
Aerial View: 

SKYbrary Partners:

Safety knowledge contributed by: